VREMENSKI PODATKI

DANES
Time Temp. Dewp. Hum. Smer vet Hitrost ve Wind gust Bar. 1h Prec. 24h Prec.
00:07 13.6 8.2 70 270 0.3 0.8 1012.2 0.0000 0.0000
00:17 13.6 8.2 70 270 0.3 0.8 1012.2 0.0000 0.0000
00:27 13.6 8.2 70 270 0.3 0.6 1012.2 0.0000 0.0000
00:37 13.6 8.2 70 270 0.3 0.8 1012.3 0.0000 0.0000
00:47 13.6 8.2 70 270 0.3 0.8 1012.3 0.0000 0.0000
00:57 13.6 8.2 70 270 0.3 0.6 1012.3 0.0000 0.0000
01:07 13.5 8.1 70 304 0.3 0.6 1012.3 0.0000 0.0000
01:17 13.4 8 70 326 0.3 1.1 1012.3 0.0000 0.0000
01:27 13.3 8 70 270 0.3 1.1 1012.3 0.0000 0.0000
01:37 13.2 7.9 70 270 0.6 2.2 1012.2 0.0000 0.0000
01:51 13.1 7.8 70 270 0.6 1.9 1012.1 0.0000 0.0000
02:01 13.1 7.8 70 270 0.3 1.1 1012.1 0.0000 0.0000
02:10 13.1 7.8 70 270 0.3 1.1 1012.1 0.0000 0.0000
02:21 13 7.7 70 307 0.6 1.9 1012.2 0.0000 0.0000
02:31 13 7.7 70 319 0.6 1.9 1012.1 0.0000 0.0000
02:41 13 7.7 70 305 0.6 2.2 1012.1 0.0000 0.0000
02:51 13 7.7 70 292 0.6 1.7 1012.2 0.0000 0.0000
03:01 13 7.7 70 297 0.6 1.9 1012.2 0.0000 0.0000
03:11 12.9 7.6 70 329 0.6 2.5 1012.2 0.0000 0.0000
03:21 12.8 7.5 70 306 0.6 1.7 1012.2 0.0000 0.0000
03:31 12.7 7.4 70 325 0.6 2.2 1012.3 0.0000 0.0000
03:41 12.6 7.3 70 315 0.6 1.9 1012.2 0.0000 0.0000
03:51 12.4 7.1 70 305 0.3 1.1 1012.2 0.1010 0.1000
04:01 12.3 7 70 320 0.3 1.1 1012.2 0.1010 0.1000
04:11 12.2 6.9 70 315 0.3 0.6 1012.1 0.1010 0.1000
04:21 12.2 6.9 70 302 0.6 1.1 1012.1 0.1010 0.1000
04:31 12.1 6.8 70 303 0.6 1.1 1012.1 0.1010 0.1000
04:42 12.1 6.8 70 291 0.6 1.7 1012 0.1010 0.1000
04:51 12 6.7 70 312 0.6 1.7 1012.1 0.0000 0.1000
05:01 12 6.7 70 315 0.6 1.9 1012.1 0.0000 0.1000
05:12 12 6.7 70 318 0.6 1.9 1012.1 0.0000 0.1000
05:22 12 6.7 70 315 0.6 1.7 1012.1 0.0000 0.1000
05:32 12 6.7 70 312 0.6 1.9 1012.1 0.0000 0.1000
05:41 12 6.7 70 319 0.3 1.7 1012 0.0000 0.1000
05:52 12.1 7 71 321 0.6 1.1 1012 0.0000 0.1000
06:02 12.2 7.1 71 318 0.6 1.9 1012 0.0000 0.1000
06:12 12.2 7.1 71 320 0.6 2.2 1012 0.0000 0.1000
06:22 12.2 7.1 71 318 0.6 1.9 1012.1 0.0000 0.1000
06:32 12.3 7.2 71 315 0.6 2.2 1012.3 0.0000 0.1000
06:42 12.3 7.2 71 327 0.8 2.2 1012.4 0.0000 0.1000
06:52 12.4 7.3 71 319 0.6 1.7 1012.3 0.0000 0.1000
07:02 12.5 7.4 71 315 0.6 1.9 1012.4 0.0000 0.1000
07:12 12.6 7.5 71 317 0.6 1.9 1012.5 0.0000 0.1000
07:22 12.7 7.6 71 325 0.6 1.9 1012.5 0.0000 0.1000
07:33 12.7 7.6 71 315 0.6 1.9 1012.6 0.0000 0.1000
07:42 12.8 7.7 71 323 0.6 1.1 1012.6 0.0000 0.1000
07:52 12.9 7.8 71 315 0.6 1.9 1012.6 0.0000 0.1000
08:02 13 7.9 71 315 0.6 1.9 1012.6 0.0000 0.1000
08:13 13.1 8 71 323 0.6 1.9 1012.7 0.0000 0.1000
08:23 13.3 8.2 71 321 0.6 1.9 1012.8 0.0000 0.1000
08:32 13.4 8.5 72 326 0.6 1.7 1012.9 0.0000 0.1000
08:43 13.6 8.7 72 319 0.6 1.9 1013 0.0000 0.1000
08:53 13.8 8.8 72 315 0.6 2.2 1013.1 0.0000 0.1000
09:03 14 9 72 322 0.6 1.1 1013.2 0.0000 0.1000
09:13 14.1 9.1 72 312 0.6 1.9 1013.3 0.0000 0.1000
09:23 14.2 9.2 72 313 0.6 2.5 1013.3 0.0000 0.1000
09:33 14.4 9.4 72 323 0.6 1.9 1013.5 0.0000 0.1000
09:43 14.6 9.6 72 325 0.6 1.9 1013.5 0.0000 0.1000
09:53 14.7 9.7 72 315 0.6 1.7 1013.6 0.0000 0.1000
10:03 14.8 9.8 72 335 0.6 1.9 1013.7 0.0000 0.1000
10:13 14.8 9.8 72 327 0.6 2.2 1013.7 0.0000 0.1000
10:23 14.9 9.9 72 334 0.3 0.8 1013.8 0.0000 0.1000
10:33 15.1 10.1 72 315 0.6 1.9 1013.9 0.0000 0.1000
10:43 15.4 10.4 72 315 0.6 1.9 1013.9 0.0000 0.1000
10:53 15.6 10.6 72 310 0.6 1.9 1014 0.0000 0.1000
11:04 16.3 11.5 73 270 0.3 1.7 1014 0.0000 0.1000
11:14 16.7 11.8 73 289 0.6 1.7 1014 0.0000 0.1000
11:23 16.7 11.6 72 66 0.6 1.7 1014.1 0.0000 0.1000
11:33 16.5 11.4 72 8 0.6 1.7 1014.2 0.0000 0.1000
11:44 16.4 11.3 72 327 0.6 2.2 1014.2 0.0000 0.1000
11:54 16.3 11.2 72 331 0.8 3.3 1014.3 0.0000 0.1000
11:57 16.2 11.2 72 337 0.8 3.3 1014.4 0.0000 0.1000
12:08 16.2 11.2 72 90 0.6 2.8 1014.4 0.0000 0.1000
12:18 16.4 11.3 72 18 0.6 2.2 1014.4 0.0000 0.1000
12:28 16.7 11.8 73 270 0.6 1.7 1014.4 0.0000 0.1000
12:38 16.9 11.8 72 90 0.6 1.9 1014.4 0.0000 0.1000
12:48 17 11.9 72 315 0.6 1.9 1014.5 0.0000 0.1000
12:58 16.8 11.7 72 332 0.8 4.2 1014.6 0.0000 0.1000
13:08 16.7 11.6 72 5 0.6 2.5 1014.7 0.0000 0.1000
13:19 16.6 11.5 72 36 0.6 1.9 1014.8 0.0000 0.1000
13:28 16.6 11.5 72 45 0.6 2.5 1014.8 0.0000 0.1000
13:38 16.6 11.5 72 0 0.6 2.5 1014.9 0.0000 0.1000
13:49 16.7 11.6 72 315 0.3 1.1 1014.9 0.0000 0.1000
13:59 16.7 11.6 72 23 0.6 1.9 1015.1 0.0000 0.1000
14:08 16.5 11.4 72 8 0.6 2.2 1015.1 0.0000 0.1000
14:18 16.5 11.4 72 60 0.6 3.1 1015.1 0.0000 0.1000
14:29 16.3 11.2 72 45 0.6 1.7 1015.2 0.0000 0.1000
14:39 16.2 10.9 71 315 0.3 1.1 1015.3 0.0000 0.1000
14:48 16.2 11.2 72 90 0.6 2.8 1015.3 0.0000 0.1000
14:59 16.3 11.2 72 270 0.3 1.1 1015.3 0.0000 0.1000
15:09 16.5 11.4 72 45 0.3 1.7 1015.3 0.0000 0.1000
15:19 16.5 11.4 72 49 0.6 2.5 1015.4 0.0000 0.1000
15:28 16.4 11.3 72 23 0.6 2.2 1015.4 0.0000 0.1000
15:39 16.4 11.3 72 329 0.3 1.7 1015.5 0.0000 0.1000
15:49 16.5 11.4 72 315 0.3 1.7 1015.4 0.0000 0.1000
15:59 16.4 11.3 72 329 0.6 2.5 1015.5 0.0000 0.1000
16:09 16.3 11 71 290 0.6 1.7 1015.5 0.0000 0.1000
16:19 16.2 10.9 71 330 0.6 1.9 1015.5 0.0000 0.1000
16:29 16.1 10.8 71 45 0.3 1.9 1015.5 0.0000 0.1000
16:39 16.1 10.8 71 26 0.6 1.7 1015.5 0.0000 0.1000
16:50 16 10.8 71 315 0.3 1.1 1015.4 0.0000 0.1000
16:59 16 10.8 71 329 0.3 1.1 1015.3 0.0000 0.1000
17:09 16 10.8 71 330 0.3 1.1 1015.4 0.0000 0.1000
17:20 16.1 10.8 71 315 0.3 1.7 1015.4 0.0000 0.1000
17:30 16 11 72 310 0.3 1.1 1015.5 0.0000 0.1000
17:39 16 10.8 71 270 0.3 1.7 1015.5 0.0000 0.1000
17:49 15.7 10.5 71 68 0.6 1.7 1015.6 0.0000 0.1000
18:00 15.6 10.4 71 90 0.6 3.6 1015.7 0.0000 0.1000
18:10 15.5 10.3 71 90 0.6 1.7 1015.7 0.0000 0.1000
18:20 15.3 10.1 71 29 0.3 1.1 1015.6 0.0000 0.1000
18:30 15.3 10.1 71 308 0.3 0.8 1015.7 0.0000 0.1000
18:40 15.2 10 71 36 0.3 0.8 1015.7 0.0000 0.1000
18:50 15.1 9.9 71 8 0.3 0.8 1015.7 0.0000 0.1000
19:00 15 9.8 71 315 0.3 0.8 1015.8 0.0000 0.1000
19:08 15 9.8 71 348 0.3 0.6 1015.9 0.0000 0.1000

DNEVNA STATISTIKA

2021-09-18
TEMPERATURA
POVPREČNO
14.5
VISOKO
17.0
12:48
NIZKO
12.0
04:51
PRITISK
POVPREČNO
1013.6
VISOKO
1015.9
19:08
NIZKO
1012.0
04:42
ROSIŠČE
POVPREČNO
9.3
VISOKO
11.9
12:48
NIZKO
6.7
04:51
VLAŽNOST
POVPREČNO
71
VISOKO
73
11:04
NIZKO
70
00:07
HITROST VETRA
POVPREČNO
0.5
VISOKO
0.8
06:42
WIND GUST
POVPREČNO
1.7
VISOKO
4.2
12:58
SMER VETRA
PREVLADUJOČA
SZ
60.9%
S
6.1
SV
11.3
V
5.2
JV
0.0
J
0.0
JZ
0.0
Z
16.5
SZ
60.9
PADAVINE
PADAVINE URNO
0.1
PADAVINE DNEVNO
0.1
TEMPERATURA (°C)
NIZKO
12.0
VISOKO
17.0
POVPREČNO
14.5
PRITISK (hpa)
NIZKO
1012.0
VISOKO
1015.9
POVPREČNO
1013.6
DEVICE